sensor_id;sensor_type;location;lat;lon;timestamp;pressure;altitude;pressure_sealevel;temperature;humidity
24666;BME280;29726;53.532;-1.478;2022-08-03T00:00:02;99711.69;;;25.58;nan
24666;BME280;29726;53.532;-1.478;2022-08-03T00:02:28;99715.91;;;25.57;nan
24666;BME280;29726;53.532;-1.478;2022-08-03T00:04:53;99715.72;;;25.55;nan
24666;BME280;29726;53.532;-1.478;2022-08-03T00:07:19;99712.72;;;25.53;nan
24666;BME280;29726;53.532;-1.478;2022-08-03T00:09:44;99699.59;;;25.50;nan
24666;BME280;29726;53.532;-1.478;2022-08-03T00:12:09;99709.53;;;25.49;nan
24666;BME280;29726;53.532;-1.478;2022-08-03T00:14:35;99709.38;;;25.47;nan
24666;BME280;29726;53.532;-1.478;2022-08-03T00:17:01;99693.41;;;25.44;nan
24666;BME280;29726;53.532;-1.478;2022-08-03T00:19:27;99698.00;;;25.40;nan
24666;BME280;29726;53.532;-1.478;2022-08-03T00:21:53;99691.72;;;25.41;nan
24666;BME280;29726;53.532;-1.478;2022-08-03T00:24:18;99701.44;;;25.38;nan
24666;BME280;29726;53.532;-1.478;2022-08-03T00:26:44;99689.13;;;25.36;nan
24666;BME280;29726;53.532;-1.478;2022-08-03T00:29:09;99695.56;;;25.36;nan
24666;BME280;29726;53.532;-1.478;2022-08-03T00:31:35;99689.53;;;25.32;nan
24666;BME280;29726;53.532;-1.478;2022-08-03T00:34:01;99693.00;;;25.31;nan
24666;BME280;29726;53.532;-1.478;2022-08-03T00:36:27;99691.13;;;25.26;nan
24666;BME280;29726;53.532;-1.478;2022-08-03T00:38:52;99688.63;;;25.30;nan
24666;BME280;29726;53.532;-1.478;2022-08-03T00:41:18;99697.19;;;25.30;nan
24666;BME280;29726;53.532;-1.478;2022-08-03T00:43:43;99687.69;;;25.27;nan
24666;BME280;29726;53.532;-1.478;2022-08-03T00:46:09;99680.47;;;25.26;nan
24666;BME280;29726;53.532;-1.478;2022-08-03T00:48:35;99673.97;;;25.26;nan
24666;BME280;29726;53.532;-1.478;2022-08-03T00:51:01;99663.72;;;25.23;nan
24666;BME280;29726;53.532;-1.478;2022-08-03T00:53:26;99664.66;;;25.25;nan
24666;BME280;29726;53.532;-1.478;2022-08-03T00:55:52;99664.50;;;25.23;nan
24666;BME280;29726;53.532;-1.478;2022-08-03T00:58:18;99657.28;;;25.22;nan
24666;BME280;29726;53.532;-1.478;2022-08-03T01:00:44;99655.75;;;25.21;nan
24666;BME280;29726;53.532;-1.478;2022-08-03T01:03:09;99664.16;;;25.19;nan
24666;BME280;29726;53.532;-1.478;2022-08-03T01:06:12;99652.75;;;25.19;nan
24666;BME280;29726;53.532;-1.478;2022-08-03T01:08:53;99650.47;;;25.18;nan
24666;BME280;29726;53.532;-1.478;2022-08-03T01:11:37;99643.94;;;25.17;nan
24666;BME280;29726;53.532;-1.478;2022-08-03T01:14:38;99635.22;;;25.15;nan
24666;BME280;29726;53.532;-1.478;2022-08-03T01:17:14;99639.41;;;25.14;nan
24666;BME280;29726;53.532;-1.478;2022-08-03T01:20:01;99627.81;;;25.12;nan
24666;BME280;29726;53.532;-1.478;2022-08-03T01:22:39;99634.31;;;25.13;nan
24666;BME280;29726;53.532;-1.478;2022-08-03T01:25:18;99620.59;;;25.11;nan
24666;BME280;29726;53.532;-1.478;2022-08-03T01:30:36;99624.63;;;25.08;nan
24666;BME280;29726;53.532;-1.478;2022-08-03T01:33:11;99614.56;;;25.07;nan
24666;BME280;29726;53.532;-1.478;2022-08-03T01:35:42;99613.81;;;25.07;nan
24666;BME280;29726;53.532;-1.478;2022-08-03T01:38:12;99592.97;;;24.97;nan
24666;BME280;29726;53.532;-1.478;2022-08-03T01:40:40;99608.09;;;25.07;nan
24666;BME280;29726;53.532;-1.478;2022-08-03T01:43:09;99616.47;;;25.05;nan
24666;BME280;29726;53.532;-1.478;2022-08-03T01:45:37;99616.47;;;25.05;nan
24666;BME280;29726;53.532;-1.478;2022-08-03T01:48:04;99610.03;;;25.04;nan
24666;BME280;29726;53.532;-1.478;2022-08-03T01:50:31;99615.56;;;25.02;nan
24666;BME280;29726;53.532;-1.478;2022-08-03T01:52:59;99618.44;;;25.02;nan
24666;BME280;29726;53.532;-1.478;2022-08-03T01:55:25;99615.97;;;24.99;nan
24666;BME280;29726;53.532;-1.478;2022-08-03T01:57:54;99611.03;;;24.99;nan
24666;BME280;29726;53.532;-1.478;2022-08-03T02:00:22;99618.25;;;25.00;nan
24666;BME280;29726;53.532;-1.478;2022-08-03T02:02:49;99608.94;;;25.00;nan
24666;BME280;29726;53.532;-1.478;2022-08-03T02:05:17;99605.00;;;24.95;nan
24666;BME280;29726;53.532;-1.478;2022-08-03T02:07:45;99611.63;;;24.98;nan
24666;BME280;29726;53.532;-1.478;2022-08-03T02:10:13;99616.59;;;24.97;nan
24666;BME280;29726;53.532;-1.478;2022-08-03T02:12:42;99606.50;;;24.96;nan
24666;BME280;29726;53.532;-1.478;2022-08-03T02:15:10;99595.66;;;24.95;nan
24666;BME280;29726;53.532;-1.478;2022-08-03T02:17:37;99603.47;;;24.94;nan
24666;BME280;29726;53.532;-1.478;2022-08-03T02:20:03;99599.09;;;24.93;nan
24666;BME280;29726;53.532;-1.478;2022-08-03T02:22:32;99605.41;;;24.92;nan
24666;BME280;29726;53.532;-1.478;2022-08-03T02:24:57;99602.22;;;24.88;nan
24666;BME280;29726;53.532;-1.478;2022-08-03T02:27:25;99605.25;;;24.90;nan
24666;BME280;29726;53.532;-1.478;2022-08-03T02:30:03;99607.16;;;24.87;nan
24666;BME280;29726;53.532;-1.478;2022-08-03T02:32:33;99613.81;;;24.90;nan
24666;BME280;29726;53.532;-1.478;2022-08-03T02:35:01;99619.53;;;24.90;nan
24666;BME280;29726;53.532;-1.478;2022-08-03T02:37:30;99618.75;;;24.89;nan
24666;BME280;29726;53.532;-1.478;2022-08-03T02:40:02;99616.50;;;24.88;nan
24666;BME280;29726;53.532;-1.478;2022-08-03T02:42:30;99610.63;;;24.86;nan
24666;BME280;29726;53.532;-1.478;2022-08-03T02:44:59;99613.47;;;24.86;nan
24666;BME280;29726;53.532;-1.478;2022-08-03T02:47:27;99609.84;;;24.85;nan
24666;BME280;29726;53.532;-1.478;2022-08-03T02:49:56;99602.47;;;24.82;nan
24666;BME280;29726;53.532;-1.478;2022-08-03T02:52:25;99606.25;;;24.85;nan
24666;BME280;29726;53.532;-1.478;2022-08-03T02:54:55;99613.31;;;24.84;nan
24666;BME280;29726;53.532;-1.478;2022-08-03T02:57:22;99596.84;;;24.75;nan
24666;BME280;29726;53.532;-1.478;2022-08-03T02:59:50;99612.38;;;24.81;nan
24666;BME280;29726;53.532;-1.478;2022-08-03T03:02:17;99616.25;;;24.76;nan
24666;BME280;29726;53.532;-1.478;2022-08-03T03:04:44;99615.06;;;24.79;nan
24666;BME280;29726;53.532;-1.478;2022-08-03T03:07:12;99610.09;;;24.80;nan
24666;BME280;29726;53.532;-1.478;2022-08-03T03:09:39;99607.69;;;24.76;nan
24666;BME280;29726;53.532;-1.478;2022-08-03T03:12:06;99619.28;;;24.78;nan
24666;BME280;29726;53.532;-1.478;2022-08-03T03:14:33;99614.91;;;24.77;nan
24666;BME280;29726;53.532;-1.478;2022-08-03T03:17:00;99608.25;;;24.75;nan
24666;BME280;29726;53.532;-1.478;2022-08-03T03:19:26;99611.88;;;24.75;nan
24666;BME280;29726;53.532;-1.478;2022-08-03T03:21:52;99605.25;;;24.73;nan
24666;BME280;29726;53.532;-1.478;2022-08-03T03:24:19;99608.09;;;24.73;nan
24666;BME280;29726;53.532;-1.478;2022-08-03T03:26:46;99603.72;;;24.72;nan
24666;BME280;29726;53.532;-1.478;2022-08-03T03:29:14;99606.41;;;24.70;nan
24666;BME280;29726;53.532;-1.478;2022-08-03T03:31:39;99607.94;;;24.71;nan
24666;BME280;29726;53.532;-1.478;2022-08-03T03:34:05;99614.22;;;24.69;nan
24666;BME280;29726;53.532;-1.478;2022-08-03T03:36:31;99621.25;;;24.68;nan
24666;BME280;29726;53.532;-1.478;2022-08-03T03:38:56;99617.66;;;24.68;nan
24666;BME280;29726;53.532;-1.478;2022-08-03T03:41:22;99611.78;;;24.66;nan
24666;BME280;29726;53.532;-1.478;2022-08-03T03:43:49;99607.09;;;24.61;nan
24666;BME280;29726;53.532;-1.478;2022-08-03T03:46:14;99606.66;;;24.64;nan
24666;BME280;29726;53.532;-1.478;2022-08-03T03:48:40;99603.06;;;24.64;nan
24666;BME280;29726;53.532;-1.478;2022-08-03T03:51:06;99626.47;;;24.62;nan
24666;BME280;29726;53.532;-1.478;2022-08-03T03:53:32;99616.22;;;24.59;nan
24666;BME280;29726;53.532;-1.478;2022-08-03T03:55:57;99627.66;;;24.59;nan
24666;BME280;29726;53.532;-1.478;2022-08-03T03:58:22;99621.78;;;24.57;nan
24666;BME280;29726;53.532;-1.478;2022-08-03T04:00:49;99631.69;;;24.56;nan
24666;BME280;29726;53.532;-1.478;2022-08-03T04:03:14;99634.38;;;24.54;nan
24666;BME280;29726;53.532;-1.478;2022-08-03T04:05:40;99634.94;;;24.53;nan
24666;BME280;29726;53.532;-1.478;2022-08-03T04:08:24;99640.09;;;24.47;nan
24666;BME280;29726;53.532;-1.478;2022-08-03T04:14:18;99657.97;;;24.47;nan
24666;BME280;29726;53.532;-1.478;2022-08-03T04:17:00;99652.09;;;24.45;nan
24666;BME280;29726;53.532;-1.478;2022-08-03T04:19:55;99656.91;;;24.43;nan
24666;BME280;29726;53.532;-1.478;2022-08-03T04:22:25;99655.38;;;24.42;nan
24666;BME280;29726;53.532;-1.478;2022-08-03T04:25:01;99652.34;;;24.40;nan
24666;BME280;29726;53.532;-1.478;2022-08-03T04:27:32;99646.53;;;24.30;nan
24666;BME280;29726;53.532;-1.478;2022-08-03T04:30:02;99664.16;;;24.36;nan
24666;BME280;29726;53.532;-1.478;2022-08-03T04:32:29;99661.16;;;24.34;nan
24666;BME280;29726;53.532;-1.478;2022-08-03T04:34:55;99684.53;;;24.33;nan
24666;BME280;29726;53.532;-1.478;2022-08-03T04:37:47;99675.81;;;24.31;nan
24666;BME280;29726;53.532;-1.478;2022-08-03T04:40:16;99673.56;;;24.29;nan
24666;BME280;29726;53.532;-1.478;2022-08-03T04:42:45;99670.53;;;24.27;nan
24666;BME280;29726;53.532;-1.478;2022-08-03T04:45:14;99672.09;;;24.21;nan
24666;BME280;29726;53.532;-1.478;2022-08-03T04:47:40;99660.69;;;24.21;nan
24666;BME280;29726;53.532;-1.478;2022-08-03T04:50:06;99669.66;;;24.17;nan
24666;BME280;29726;53.532;-1.478;2022-08-03T04:52:33;99669.66;;;24.17;nan
24666;BME280;29726;53.532;-1.478;2022-08-03T04:54:59;99674.00;;;24.18;nan
24666;BME280;29726;53.532;-1.478;2022-08-03T04:57:25;99683.91;;;24.17;nan
24666;BME280;29726;53.532;-1.478;2022-08-03T04:59:51;99685.84;;;24.15;nan
24666;BME280;29726;53.532;-1.478;2022-08-03T05:02:19;99682.78;;;24.13;nan
24666;BME280;29726;53.532;-1.478;2022-08-03T05:04:45;99684.13;;;24.12;nan
24666;BME280;29726;53.532;-1.478;2022-08-03T05:07:15;99683.59;;;24.06;nan
24666;BME280;29726;53.532;-1.478;2022-08-03T05:09:42;99690.25;;;24.08;nan
24666;BME280;29726;53.532;-1.478;2022-08-03T05:12:08;99680.00;;;24.05;nan
24666;BME280;29726;53.532;-1.478;2022-08-03T05:14:34;99688.41;;;24.03;nan
24666;BME280;29726;53.532;-1.478;2022-08-03T05:17:05;99678.31;;;24.02;nan
24666;BME280;29726;53.532;-1.478;2022-08-03T05:19:30;99686.13;;;24.02;nan
24666;BME280;29726;53.532;-1.478;2022-08-03T05:21:56;99695.84;;;23.99;nan
24666;BME280;29726;53.532;-1.478;2022-08-03T05:24:22;99690.53;;;23.95;nan
24666;BME280;29726;53.532;-1.478;2022-08-03T05:26:47;99709.91;;;23.97;nan
24666;BME280;29726;53.532;-1.478;2022-08-03T05:29:13;99708.41;;;23.96;nan
24666;BME280;29726;53.532;-1.478;2022-08-03T05:31:38;99708.22;;;23.94;nan
24666;BME280;29726;53.532;-1.478;2022-08-03T05:34:04;99718.13;;;23.93;nan
24666;BME280;29726;53.532;-1.478;2022-08-03T05:36:30;99722.88;;;23.90;nan
24666;BME280;29726;53.532;-1.478;2022-08-03T05:38:55;99727.06;;;23.89;nan
24666;BME280;29726;53.532;-1.478;2022-08-03T05:41:21;99741.88;;;23.88;nan
24666;BME280;29726;53.532;-1.478;2022-08-03T05:43:46;99739.03;;;23.88;nan
24666;BME280;29726;53.532;-1.478;2022-08-03T05:46:12;99723.69;;;23.76;nan
24666;BME280;29726;53.532;-1.478;2022-08-03T05:48:37;99741.53;;;23.84;nan
24666;BME280;29726;53.532;-1.478;2022-08-03T05:51:03;99741.91;;;23.80;nan
24666;BME280;29726;53.532;-1.478;2022-08-03T05:53:34;99734.31;;;23.75;nan
24666;BME280;29726;53.532;-1.478;2022-08-03T05:55:59;99724.84;;;23.73;nan
24666;BME280;29726;53.532;-1.478;2022-08-03T05:58:25;99735.66;;;23.74;nan
24666;BME280;29726;53.532;-1.478;2022-08-03T06:00:50;99736.06;;;23.71;nan
24666;BME280;29726;53.532;-1.478;2022-08-03T06:03:15;99750.50;;;23.73;nan
24666;BME280;29726;53.532;-1.478;2022-08-03T06:05:41;99746.13;;;23.72;nan
24666;BME280;29726;53.532;-1.478;2022-08-03T06:08:07;99743.28;;;23.72;nan
24666;BME280;29726;53.532;-1.478;2022-08-03T06:10:32;99746.69;;;23.71;nan
24666;BME280;29726;53.532;-1.478;2022-08-03T06:12:57;99747.47;;;23.71;nan
24666;BME280;29726;53.532;-1.478;2022-08-03T06:15:23;99736.63;;;23.70;nan
24666;BME280;29726;53.532;-1.478;2022-08-03T06:17:50;99748.03;;;23.70;nan
24666;BME280;29726;53.532;-1.478;2022-08-03T06:20:17;99742.16;;;23.68;nan
24666;BME280;29726;53.532;-1.478;2022-08-03T06:22:44;99756.59;;;23.70;nan
24666;BME280;29726;53.532;-1.478;2022-08-03T06:25:09;99759.44;;;23.70;nan
24666;BME280;29726;53.532;-1.478;2022-08-03T06:27:34;99753.75;;;23.70;nan
24666;BME280;29726;53.532;-1.478;2022-08-03T06:30:05;99756.59;;;23.70;nan
24666;BME280;29726;53.532;-1.478;2022-08-03T06:32:31;99761.56;;;23.69;nan
24666;BME280;29726;53.532;-1.478;2022-08-03T06:34:59;99762.88;;;23.68;nan
24666;BME280;29726;53.532;-1.478;2022-08-03T06:37:25;99750.53;;;23.66;nan
24666;BME280;29726;53.532;-1.478;2022-08-03T06:39:51;99758.69;;;23.69;nan
24666;BME280;29726;53.532;-1.478;2022-08-03T06:42:17;99769.31;;;23.69;nan
24666;BME280;29726;53.532;-1.478;2022-08-03T06:44:43;99760.22;;;23.70;nan
24666;BME280;29726;53.532;-1.478;2022-08-03T06:47:08;99772.94;;;23.69;nan
24666;BME280;29726;53.532;-1.478;2022-08-03T06:49:34;99764.97;;;23.68;nan
24666;BME280;29726;53.532;-1.478;2022-08-03T06:51:59;99762.88;;;23.68;nan
24666;BME280;29726;53.532;-1.478;2022-08-03T06:54:25;99766.84;;;23.73;nan
24666;BME280;29726;53.532;-1.478;2022-08-03T06:56:50;99763.97;;;23.73;nan
24666;BME280;29726;53.532;-1.478;2022-08-03T06:59:16;99762.66;;;23.73;nan
24666;BME280;29726;53.532;-1.478;2022-08-03T07:01:41;99759.06;;;23.73;nan
24666;BME280;29726;53.532;-1.478;2022-08-03T07:04:07;99765.13;;;23.77;nan
24666;BME280;29726;53.532;-1.478;2022-08-03T07:06:32;99768.72;;;23.77;nan
24666;BME280;29726;53.532;-1.478;2022-08-03T07:08:58;99763.00;;;23.77;nan
24666;BME280;29726;53.532;-1.478;2022-08-03T07:11:24;99771.97;;;23.82;nan
24666;BME280;29726;53.532;-1.478;2022-08-03T07:13:49;99773.66;;;23.84;nan
24666;BME280;29726;53.532;-1.478;2022-08-03T07:16:15;99769.66;;;23.87;nan
24666;BME280;29726;53.532;-1.478;2022-08-03T07:18:40;99769.84;;;23.89;nan
24666;BME280;29726;53.532;-1.478;2022-08-03T07:21:05;99762.63;;;23.88;nan
24666;BME280;29726;53.532;-1.478;2022-08-03T07:23:33;99769.44;;;23.93;nan
24666;BME280;29726;53.532;-1.478;2022-08-03T07:25:59;99765.78;;;24.00;nan
24666;BME280;29726;53.532;-1.478;2022-08-03T07:28:24;99767.31;;;24.01;nan
24666;BME280;29726;53.532;-1.478;2022-08-03T07:30:49;99777.16;;;24.07;nan
24666;BME280;29726;53.532;-1.478;2022-08-03T07:33:15;99773.16;;;24.10;nan
24666;BME280;29726;53.532;-1.478;2022-08-03T07:35:40;99761.38;;;24.06;nan
24666;BME280;29726;53.532;-1.478;2022-08-03T07:38:06;99763.59;;;24.15;nan
24666;BME280;29726;53.532;-1.478;2022-08-03T07:40:33;99782.38;;;24.26;nan
24666;BME280;29726;53.532;-1.478;2022-08-03T07:42:58;99764.88;;;24.29;nan
24666;BME280;29726;53.532;-1.478;2022-08-03T07:45:24;99776.81;;;24.35;nan
24666;BME280;29726;53.532;-1.478;2022-08-03T07:47:50;99772.03;;;24.38;nan
24666;BME280;29726;53.532;-1.478;2022-08-03T07:50:16;99769.88;;;24.46;nan
24666;BME280;29726;53.532;-1.478;2022-08-03T07:52:41;99776.16;;;24.52;nan
24666;BME280;29726;53.532;-1.478;2022-08-03T07:55:14;99771.38;;;24.54;nan
24666;BME280;29726;53.532;-1.478;2022-08-03T07:57:40;99782.75;;;24.62;nan
24666;BME280;29726;53.532;-1.478;2022-08-03T08:00:12;99785.34;;;24.67;nan
24666;BME280;29726;53.532;-1.478;2022-08-03T08:02:39;99782.25;;;24.73;nan
24666;BME280;29726;53.532;-1.478;2022-08-03T08:05:04;99782.59;;;24.77;nan
24666;BME280;29726;53.532;-1.478;2022-08-03T08:07:30;99792.47;;;24.83;nan
24666;BME280;29726;53.532;-1.478;2022-08-03T08:09:55;99791.63;;;24.90;nan
24666;BME280;29726;53.532;-1.478;2022-08-03T08:12:21;99805.69;;;24.96;nan
24666;BME280;29726;53.532;-1.478;2022-08-03T08:14:46;99797.44;;;25.00;nan
24666;BME280;29726;53.532;-1.478;2022-08-03T08:17:12;99794.19;;;25.03;nan
24666;BME280;29726;53.532;-1.478;2022-08-03T08:19:38;99807.06;;;25.12;nan
24666;BME280;29726;53.532;-1.478;2022-08-03T08:22:04;99796.81;;;25.09;nan
24666;BME280;29726;53.532;-1.478;2022-08-03T08:24:31;99805.88;;;25.22;nan
24666;BME280;29726;53.532;-1.478;2022-08-03T08:26:58;99811.31;;;25.28;nan
24666;BME280;29726;53.532;-1.478;2022-08-03T08:29:24;99808.22;;;25.33;nan
24666;BME280;29726;53.532;-1.478;2022-08-03T08:31:49;99820.16;;;25.39;nan
24666;BME280;29726;53.532;-1.478;2022-08-03T08:34:15;99814.38;;;25.47;nan
24666;BME280;29726;53.532;-1.478;2022-08-03T08:36:41;99824.78;;;25.52;nan
24666;BME280;29726;53.532;-1.478;2022-08-03T08:39:06;99824.72;;;25.59;nan
24666;BME280;29726;53.532;-1.478;2022-08-03T08:41:32;99824.47;;;25.64;nan
24666;BME280;29726;53.532;-1.478;2022-08-03T08:44:02;99820.00;;;25.71;nan
24666;BME280;29726;53.532;-1.478;2022-08-03T08:46:32;99831.22;;;25.76;nan
24666;BME280;29726;53.532;-1.478;2022-08-03T08:48:58;99835.31;;;25.83;nan
24666;BME280;29726;53.532;-1.478;2022-08-03T08:51:27;99829.41;;;25.81;nan
24666;BME280;29726;53.532;-1.478;2022-08-03T08:53:55;99839.78;;;25.93;nan
24666;BME280;29726;53.532;-1.478;2022-08-03T08:56:24;99842.41;;;25.99;nan
24666;BME280;29726;53.532;-1.478;2022-08-03T08:58:52;99844.25;;;26.04;nan
24666;BME280;29726;53.532;-1.478;2022-08-03T09:01:19;99840.97;;;26.07;nan
24666;BME280;29726;53.532;-1.478;2022-08-03T09:03:45;99839.19;;;26.12;nan
24666;BME280;29726;53.532;-1.478;2022-08-03T09:06:11;99836.81;;;26.18;nan
24666;BME280;29726;53.532;-1.478;2022-08-03T09:08:37;99839.84;;;26.20;nan
24666;BME280;29726;53.532;-1.478;2022-08-03T09:11:02;99854.81;;;26.28;nan
24666;BME280;29726;53.532;-1.478;2022-08-03T09:13:28;99854.56;;;26.33;nan
24666;BME280;29726;53.532;-1.478;2022-08-03T09:16:14;99863.63;;;26.39;nan
24666;BME280;29726;53.532;-1.478;2022-08-03T09:18:42;99852.16;;;26.39;nan
24666;BME280;29726;53.532;-1.478;2022-08-03T09:21:21;99863.88;;;26.51;nan
24666;BME280;29726;53.532;-1.478;2022-08-03T09:23:49;99872.63;;;26.53;nan
24666;BME280;29726;53.532;-1.478;2022-08-03T09:26:22;99874.66;;;26.60;nan
24666;BME280;29726;53.532;-1.478;2022-08-03T09:29:18;99875.13;;;26.66;nan
24666;BME280;29726;53.532;-1.478;2022-08-03T09:31:45;99882.53;;;26.69;nan
24666;BME280;29726;53.532;-1.478;2022-08-03T09:34:15;99881.94;;;26.70;nan
24666;BME280;29726;53.532;-1.478;2022-08-03T09:36:48;99879.56;;;26.76;nan
24666;BME280;29726;53.532;-1.478;2022-08-03T09:39:25;99871.88;;;26.79;nan
24666;BME280;29726;53.532;-1.478;2022-08-03T09:42:06;99886.84;;;26.87;nan
24666;BME280;29726;53.532;-1.478;2022-08-03T09:44:43;99889.25;;;26.90;nan
24666;BME280;29726;53.532;-1.478;2022-08-03T09:47:10;99890.34;;;26.95;nan
24666;BME280;29726;53.532;-1.478;2022-08-03T09:49:37;99881.84;;;26.87;nan
24666;BME280;29726;53.532;-1.478;2022-08-03T09:52:18;99897.91;;;27.00;nan
24666;BME280;29726;53.532;-1.478;2022-08-03T09:54:50;99900.94;;;27.02;nan
24666;BME280;29726;53.532;-1.478;2022-08-03T09:57:20;99899.16;;;27.06;nan
24666;BME280;29726;53.532;-1.478;2022-08-03T09:59:46;99905.03;;;27.08;nan
24666;BME280;29726;53.532;-1.478;2022-08-03T10:02:24;99906.00;;;27.11;nan
24666;BME280;29726;53.532;-1.478;2022-08-03T10:04:50;99909.16;;;27.15;nan
24666;BME280;29726;53.532;-1.478;2022-08-03T10:07:17;99913.41;;;27.14;nan
24666;BME280;29726;53.532;-1.478;2022-08-03T10:12:19;99922.63;;;27.22;nan
24666;BME280;29726;53.532;-1.478;2022-08-03T10:14:46;99909.97;;;27.25;nan
24666;BME280;29726;53.532;-1.478;2022-08-03T10:17:11;99917.38;;;27.28;nan
24666;BME280;29726;53.532;-1.478;2022-08-03T10:19:37;99923.44;;;27.32;nan
24666;BME280;29726;53.532;-1.478;2022-08-03T10:22:11;99915.72;;;27.34;nan
24666;BME280;29726;53.532;-1.478;2022-08-03T10:24:38;99930.38;;;27.38;nan
24666;BME280;29726;53.532;-1.478;2022-08-03T10:27:06;99925.72;;;27.42;nan
24666;BME280;29726;53.532;-1.478;2022-08-03T10:29:54;99931.03;;;27.46;nan
24666;BME280;29726;53.532;-1.478;2022-08-03T10:32:51;99930.56;;;27.49;nan
24666;BME280;29726;53.532;-1.478;2022-08-03T10:35:20;99914.44;;;27.54;nan
24666;BME280;29726;53.532;-1.478;2022-08-03T10:37:58;99927.72;;;27.59;nan
24666;BME280;29726;53.532;-1.478;2022-08-03T10:40:27;99930.94;;;27.63;nan
24666;BME280;29726;53.532;-1.478;2022-08-03T10:42:55;99920.50;;;27.67;nan
24666;BME280;29726;53.532;-1.478;2022-08-03T10:45:25;99935.94;;;27.72;nan
24666;BME280;29726;53.532;-1.478;2022-08-03T10:47:52;99939.91;;;27.76;nan
24666;BME280;29726;53.532;-1.478;2022-08-03T10:50:22;99933.69;;;27.80;nan
24666;BME280;29726;53.532;-1.478;2022-08-03T10:52:59;99925.38;;;27.84;nan
24666;BME280;29726;53.532;-1.478;2022-08-03T10:58:14;99934.00;;;27.93;nan
24666;BME280;29726;53.532;-1.478;2022-08-03T11:00:49;99939.47;;;27.99;nan
24666;BME280;29726;53.532;-1.478;2022-08-03T11:03:15;99921.19;;;28.04;nan
24666;BME280;29726;53.532;-1.478;2022-08-03T11:05:46;99945.22;;;28.08;nan
24666;BME280;29726;53.532;-1.478;2022-08-03T11:08:26;99935.41;;;28.11;nan
24666;BME280;29726;53.532;-1.478;2022-08-03T11:14:17;99949.03;;;28.20;nan
24666;BME280;29726;53.532;-1.478;2022-08-03T11:16:48;99956.56;;;28.25;nan
24666;BME280;29726;53.532;-1.478;2022-08-03T11:19:16;99954.44;;;28.26;nan
24666;BME280;29726;53.532;-1.478;2022-08-03T11:40:48;99979.88;;;28.58;nan
24666;BME280;29726;53.532;-1.478;2022-08-03T11:45:59;99984.13;;;28.66;nan
24666;BME280;29726;53.532;-1.478;2022-08-03T11:48:39;99991.81;;;28.73;nan
24666;BME280;29726;53.532;-1.478;2022-08-03T11:51:25;99986.34;;;28.77;nan
24666;BME280;29726;53.532;-1.478;2022-08-03T11:54:02;99984.53;;;28.82;nan
24666;BME280;29726;53.532;-1.478;2022-08-03T11:56:45;99977.56;;;28.85;nan
24666;BME280;29726;53.532;-1.478;2022-08-03T11:59:11;99993.03;;;28.89;nan
24666;BME280;29726;53.532;-1.478;2022-08-03T12:01:36;99986.22;;;28.94;nan
24666;BME280;29726;53.532;-1.478;2022-08-03T12:04:03;99989.09;;;28.94;nan
24666;BME280;29726;53.532;-1.478;2022-08-03T12:06:29;99993.91;;;29.01;nan
24666;BME280;29726;53.532;-1.478;2022-08-03T12:08:55;99996.31;;;29.05;nan
24666;BME280;29726;53.532;-1.478;2022-08-03T12:11:20;99996.47;;;29.07;nan
24666;BME280;29726;53.532;-1.478;2022-08-03T12:13:49;100003.88;;;29.10;nan
24666;BME280;29726;53.532;-1.478;2022-08-03T12:16:21;99994.78;;;29.13;nan
24666;BME280;29726;53.532;-1.478;2022-08-03T12:19:14;99998.56;;;29.16;nan
24666;BME280;29726;53.532;-1.478;2022-08-03T12:21:49;100014.59;;;29.18;nan
24666;BME280;29726;53.532;-1.478;2022-08-03T12:24:15;100005.38;;;29.20;nan
24666;BME280;29726;53.532;-1.478;2022-08-03T12:26:48;99997.03;;;29.24;nan
24666;BME280;29726;53.532;-1.478;2022-08-03T12:29:21;100007.31;;;29.27;nan
24666;BME280;29726;53.532;-1.478;2022-08-03T12:31:47;100007.44;;;29.29;nan
24666;BME280;29726;53.532;-1.478;2022-08-03T12:34:13;100025.75;;;29.33;nan
24666;BME280;29726;53.532;-1.478;2022-08-03T12:36:50;100010.00;;;29.34;nan
24666;BME280;29726;53.532;-1.478;2022-08-03T12:39:17;100019.56;;;29.37;nan
24666;BME280;29726;53.532;-1.478;2022-08-03T12:41:52;100029.97;;;29.42;nan
24666;BME280;29726;53.532;-1.478;2022-08-03T12:44:28;100037.38;;;29.45;nan
24666;BME280;29726;53.532;-1.478;2022-08-03T12:46:57;100029.69;;;29.47;nan
24666;BME280;29726;53.532;-1.478;2022-08-03T12:49:23;100031.03;;;29.46;nan
24666;BME280;29726;53.532;-1.478;2022-08-03T12:54:16;100054.78;;;29.56;nan
24666;BME280;29726;53.532;-1.478;2022-08-03T12:57:02;100049.19;;;29.58;nan
24666;BME280;29726;53.532;-1.478;2022-08-03T12:59:33;100052.06;;;29.58;nan
24666;BME280;29726;53.532;-1.478;2022-08-03T13:01:59;100058.84;;;29.63;nan
24666;BME280;29726;53.532;-1.478;2022-08-03T13:04:32;100069.16;;;29.66;nan
24666;BME280;29726;53.532;-1.478;2022-08-03T13:07:00;100060.66;;;29.68;nan
24666;BME280;29726;53.532;-1.478;2022-08-03T13:09:27;100068.66;;;29.69;nan
24666;BME280;29726;53.532;-1.478;2022-08-03T13:12:12;100073.22;;;29.72;nan
24666;BME280;29726;53.532;-1.478;2022-08-03T13:14:39;100073.38;;;29.74;nan
24666;BME280;29726;53.532;-1.478;2022-08-03T13:17:05;100069.84;;;29.76;nan
24666;BME280;29726;53.532;-1.478;2022-08-03T13:19:35;100077.88;;;29.77;nan
24666;BME280;29726;53.532;-1.478;2022-08-03T13:22:10;100065.75;;;29.79;nan
24666;BME280;29726;53.532;-1.478;2022-08-03T13:24:37;100058.63;;;29.80;nan
24666;BME280;29726;53.532;-1.478;2022-08-03T13:27:02;100065.88;;;29.81;nan
24666;BME280;29726;53.532;-1.478;2022-08-03T13:29:29;100065.88;;;29.81;nan
24666;BME280;29726;53.532;-1.478;2022-08-03T13:31:54;100053.00;;;29.82;nan
24666;BME280;29726;53.532;-1.478;2022-08-03T13:34:20;100054.53;;;29.83;nan
24666;BME280;29726;53.532;-1.478;2022-08-03T13:36:45;100048.78;;;29.83;nan
24666;BME280;29726;53.532;-1.478;2022-08-03T13:39:11;100071.19;;;29.84;nan
24666;BME280;29726;53.532;-1.478;2022-08-03T13:41:36;100044.38;;;29.82;nan
24666;BME280;29726;53.532;-1.478;2022-08-03T13:44:01;100070.59;;;29.86;nan
24666;BME280;29726;53.532;-1.478;2022-08-03T13:46:27;100075.72;;;29.87;nan
24666;BME280;29726;53.532;-1.478;2022-08-03T13:48:52;100062.09;;;29.88;nan
24666;BME280;29726;53.532;-1.478;2022-08-03T13:51:18;100084.50;;;29.89;nan
24666;BME280;29726;53.532;-1.478;2022-08-03T13:53:43;100089.66;;;29.91;nan
24666;BME280;29726;53.532;-1.478;2022-08-03T13:56:09;100078.13;;;29.91;nan